| time (UTC) | temp F | wind direction | speed MPH | gust MPH | rain 1hr in | rain 24hr in | rain mn in | humidity % | barometer mb |
| 20260508014049 | 42 | 270 | 3.0 | 7.0 | 0.00 | 0.12 | 0.12 | 89 | 1008.6 |
| 20260508013044 | 42 | 293 | 3.0 | 7.0 | 0.00 | 0.12 | 0.12 | 88 | 1008.7 |
| 20260508012040 | 42 | 293 | 4.0 | 10.0 | 0.00 | 0.12 | 0.12 | 88 | 1008.6 |
| 20260508011035 | 43 | 293 | 5.0 | 9.0 | 0.00 | 0.12 | 0.12 | 87 | 1008.5 |
| 20260508010030 | 43 | 293 | 5.0 | 13.0 | 0.00 | 0.12 | 0.12 | 86 | 1008.4 |
| 20260508005023 | 43 | 270 | 4.0 | 9.0 | 0.00 | 0.12 | 0.12 | 87 | 1008.4 |
| 20260508004017 | 43 | 270 | 5.0 | 12.0 | 0.00 | 0.12 | 0.12 | 86 | 1008.3 |
| 20260508003114 | 43 | 270 | 5.0 | 13.0 | 0.00 | 0.12 | 0.12 | 86 | 1008.2 |
| 20260508002110 | 44 | 270 | 6.0 | 15.0 | 0.00 | 0.12 | 0.12 | 84 | 1008.0 |
| 20260508001103 | 44 | 270 | 6.0 | 12.0 | 0.00 | 0.12 | 0.12 | 83 | 1007.9 |
| 20260508000058 | 44 | 270 | 5.0 | 11.0 | 0.00 | 0.12 | 0.12 | 83 | 1007.7 |
| 20260507235050 | 45 | 270 | 5.0 | 11.0 | 0.00 | 0.12 | 0.12 | 82 | 1007.8 |
| 20260507234048 | 46 | 293 | 5.0 | 13.0 | 0.00 | 0.12 | 0.12 | 80 | 1007.7 |
| 20260507233040 | 47 | 293 | 4.0 | 10.0 | 0.00 | 0.12 | 0.12 | 79 | 1007.5 |
| 20260507232054 | 47 | 293 | 5.0 | 11.0 | 0.00 | 0.12 | 0.12 | 79 | 1007.5 |
| 20260507231026 | 47 | 293 | 5.0 | 12.0 | 0.00 | 0.12 | 0.12 | 78 | 1007.4 |
| 20260507230022 | 47 | 293 | 5.0 | 12.0 | 0.00 | 0.12 | 0.12 | 79 | 1007.2 |
| 20260507225038 | 46 | 293 | 6.0 | 12.0 | 0.00 | 0.12 | 0.12 | 80 | 1007.2 |
| 20260507224118 | 46 | 270 | 6.0 | 13.0 | 0.00 | 0.12 | 0.12 | 80 | 1007.1 |
| 20260507223117 | 46 | 293 | 5.0 | 10.0 | 0.00 | 0.12 | 0.12 | 79 | 1007.0 |
| 20260507222108 | 46 | 270 | 5.0 | 13.0 | 0.00 | 0.12 | 0.12 | 79 | 1006.9 |
| 20260507221056 | 47 | 293 | 5.0 | 14.0 | 0.00 | 0.12 | 0.12 | 79 | 1006.9 |
| 20260507220050 | 47 | 293 | 8.0 | 17.0 | 0.00 | 0.12 | 0.12 | 78 | 1006.9 |
| 20260507215043 | 47 | 270 | 5.0 | 14.0 | 0.00 | 0.12 | 0.12 | 77 | 1006.9 |
| 20260507214038 | 47 | 293 | 6.0 | 13.0 | 0.00 | 0.13 | 0.12 | 77 | 1006.9 |
| 20260507213032 | 48 | 293 | 6.0 | 12.0 | 0.00 | 0.13 | 0.12 | 76 | 1006.7 |
| 20260507212030 | 48 | 293 | 6.0 | 15.0 | 0.00 | 0.13 | 0.12 | 75 | 1006.6 |
| 20260507211026 | 49 | 293 | 6.0 | 14.0 | 0.00 | 0.13 | 0.12 | 75 | 1006.4 |
| 20260507210022 | 49 | 270 | 4.0 | 12.0 | 0.00 | 0.13 | 0.12 | 75 | 1006.3 |
| 20260507205017 | 48 | 270 | 5.0 | 13.0 | 0.00 | 0.13 | 0.12 | 78 | 1006.2 |
| 20260507204120 | 48 | 248 | 4.0 | 11.0 | 0.00 | 0.14 | 0.12 | 77 | 1006.1 |
| 20260507203114 | 48 | 270 | 6.0 | 12.0 | 0.00 | 0.14 | 0.12 | 77 | 1006.2 |
| 20260507202108 | 47 | 270 | 4.0 | 9.0 | 0.00 | 0.14 | 0.12 | 79 | 1006.2 |
| 20260507201103 | 46 | 293 | 5.0 | 12.0 | 0.00 | 0.14 | 0.12 | 80 | 1006.2 |
| 20260507200100 | 46 | 293 | 6.0 | 14.0 | 0.00 | 0.14 | 0.12 | 79 | 1006.3 |
| 20260507195055 | 46 | 293 | 6.0 | 14.0 | 0.00 | 0.14 | 0.12 | 78 | 1006.3 |
| 20260507194052 | 47 | 293 | 6.0 | 13.0 | 0.00 | 0.14 | 0.12 | 77 | 1006.3 |
| 20260507193047 | 48 | 293 | 7.0 | 15.0 | 0.00 | 0.14 | 0.12 | 76 | 1006.3 |
| 20260507192044 | 48 | 293 | 6.0 | 18.0 | 0.00 | 0.14 | 0.12 | 76 | 1006.2 |
| 20260507191040 | 49 | 293 | 7.0 | 17.0 | 0.00 | 0.14 | 0.12 | 76 | 1006.1 |
| 20260507190035 | 50 | 293 | 2.0 | 8.0 | 0.00 | 0.14 | 0.12 | 76 | 1005.9 |
| 20260507185029 | 50 | 225 | 1.0 | 4.0 | 0.00 | 0.15 | 0.12 | 78 | 1006.0 |
| 20260507184034 | 50 | 270 | 1.0 | 3.0 | 0.00 | 0.15 | 0.12 | 77 | 1006.0 |
| 20260507183029 | 49 | 270 | 1.0 | 5.0 | 0.00 | 0.15 | 0.12 | 78 | 1006.1 |
| 20260507182045 | 49 | 248 | 2.0 | 6.0 | 0.01 | 0.16 | 0.12 | 79 | 1006.2 |
| 20260507181022 | 49 | 270 | 2.0 | 6.0 | 0.01 | 0.17 | 0.12 | 79 | 1006.3 |
| 20260507180016 | 49 | 270 | 2.0 | 6.0 | 0.01 | 0.17 | 0.12 | 84 | 1006.3 |
| 20260507175138 | 48 | 270 | 4.0 | 8.0 | 0.01 | 0.18 | 0.12 | 84 | 1006.5 |
| 20260507174102 | 47 | 248 | 3.0 | 7.0 | 0.01 | 0.19 | 0.12 | 89 | 1006.7 |
| 20260507173116 | 46 | 270 | 3.0 | 9.0 | 0.01 | 0.21 | 0.12 | 89 | 1006.7 |
| 20260507172049 | 46 | 270 | 4.0 | 8.0 | 0.00 | 0.21 | 0.11 | 89 | 1006.8 |
| 20260507171110 | 46 | 248 | 2.0 | 7.0 | 0.03 | 0.22 | 0.11 | 90 | 1006.7 |
| 20260507170025 | 46 | 248 | 3.0 | 6.0 | 0.05 | 0.23 | 0.11 | 91 | 1006.8 |
| 20260507165021 | 45 | 270 | 4.0 | 8.0 | 0.07 | 0.24 | 0.11 | 91 | 1007.0 |
| 20260507164036 | 45 | 248 | 3.0 | 6.0 | 0.08 | 0.25 | 0.11 | 92 | 1007.0 |
| 20260507163118 | 45 | 270 | 2.0 | 6.0 | 0.09 | 0.26 | 0.11 | 92 | 1007.1 |
| 20260507162113 | 45 | 248 | 1.0 | 3.0 | 0.10 | 0.26 | 0.11 | 92 | 1007.1 |
| 20260507161107 | 45 | 0.0 | 3.0 | 0.07 | 0.24 | 0.08 | 92 | 1007.2 | |
| 20260507160103 | 45 | 293 | 1.0 | 4.0 | 0.06 | 0.23 | 0.06 | 91 | 1007.2 |
| 20260507155059 | 45 | 270 | 1.0 | 3.0 | 0.04 | 0.22 | 0.04 | 91 | 1007.4 |
| 20260507154103 | 45 | 293 | 2.0 | 6.0 | 0.03 | 0.23 | 0.03 | 91 | 1007.3 |
| 20260507153051 | 45 | 293 | 2.0 | 5.0 | 0.02 | 0.23 | 0.02 | 91 | 1007.4 |
| 20260507152047 | 45 | 293 | 2.0 | 4.0 | 0.01 | 0.24 | 0.01 | 90 | 1007.6 |
| 20260507151043 | 45 | 293 | 2.0 | 6.0 | 0.01 | 0.26 | 0.01 | 90 | 1007.7 |
| 20260507150039 | 45 | 315 | 1.0 | 3.0 | 0.00 | 0.26 | 0.00 | 90 | 1007.8 |
| 20260507145035 | 45 | 293 | 1.0 | 4.0 | 0.00 | 0.28 | 0.00 | 90 | 1007.8 |
| 20260507144031 | 45 | 293 | 3.0 | 9.0 | 0.00 | 0.29 | 0.00 | 90 | 1007.9 |
| 20260507143025 | 44 | 293 | 3.0 | 7.0 | 0.00 | 0.31 | 0.00 | 90 | 1007.8 |
| 20260507142023 | 45 | 293 | 3.0 | 6.0 | 0.00 | 0.32 | 0.00 | 89 | 1007.9 |
| 20260507141021 | 45 | 270 | 5.0 | 11.0 | 0.00 | 0.33 | 0.00 | 89 | 1008.1 |
| 20260507140117 | 45 | 270 | 4.0 | 7.0 | 0.00 | 0.34 | 0.00 | 89 | 1007.8 |
| 20260507135112 | 45 | 248 | 3.0 | 6.0 | 0.00 | 0.35 | 0.00 | 90 | 1007.8 |
| 20260507134107 | 44 | 270 | 3.0 | 8.0 | 0.00 | 0.35 | 0.00 | 90 | 1007.8 |
| 20260507133103 | 44 | 270 | 4.0 | 7.0 | 0.00 | 0.36 | 0.00 | 90 | 1007.9 |
| 20260507132059 | 44 | 270 | 3.0 | 6.0 | 0.00 | 0.37 | 0.00 | 91 | 1007.9 |
| 20260507131055 | 44 | 248 | 2.0 | 5.0 | 0.00 | 0.38 | 0.00 | 91 | 1007.8 |
| 20260507130050 | 44 | 293 | 3.0 | 9.0 | 0.00 | 0.38 | 0.00 | 91 | 1008.0 |
| 20260507125107 | 44 | 270 | 2.0 | 6.0 | 0.00 | 0.39 | 0.00 | 91 | 1008.1 |
| 20260507124101 | 44 | 270 | 3.0 | 7.0 | 0.00 | 0.40 | 0.00 | 91 | 1008.1 |
| 20260507123043 | 43 | 270 | 3.0 | 7.0 | 0.00 | 0.41 | 0.00 | 91 | 1008.0 |
| 20260507122017 | 43 | 270 | 3.0 | 9.0 | 0.00 | 0.42 | 0.00 | 91 | 1008.2 |
| 20260507121113 | 43 | 248 | 3.0 | 6.0 | 0.00 | 0.44 | 0.00 | 91 | 1008.0 |
| 20260507120106 | 43 | 248 | 3.0 | 8.0 | 0.00 | 0.45 | 0.00 | 91 | 1008.0 |
| 20260507115105 | 43 | 248 | 3.0 | 10.0 | 0.00 | 0.45 | 0.00 | 91 | 1008.0 |
| 20260507114059 | 43 | 248 | 3.0 | 6.0 | 0.00 | 0.46 | 0.00 | 92 | 1008.0 |
| 20260507113054 | 43 | 270 | 3.0 | 7.0 | 0.00 | 0.47 | 0.00 | 92 | 1008.0 |
| 20260507112050 | 43 | 270 | 3.0 | 7.0 | 0.00 | 0.47 | 0.00 | 92 | 1007.9 |
| 20260507111046 | 43 | 270 | 4.0 | 10.0 | 0.00 | 0.47 | 0.00 | 92 | 1008.1 |
| 20260507110038 | 43 | 270 | 3.0 | 6.0 | 0.00 | 0.47 | 0.00 | 92 | 1008.2 |
| 20260507105032 | 42 | 270 | 3.0 | 8.0 | 0.00 | 0.47 | 0.00 | 92 | 1008.2 |
| 20260507104029 | 42 | 270 | 3.0 | 9.0 | 0.00 | 0.47 | 0.00 | 92 | 1007.9 |
| 20260507103020 | 43 | 248 | 1.0 | 4.0 | 0.00 | 0.47 | 0.00 | 92 | 1008.0 |
| 20260507102017 | 43 | 270 | 2.0 | 5.0 | 0.00 | 0.47 | 0.00 | 92 | 1007.8 |
| 20260507101142 | 42 | 248 | 1.0 | 3.0 | 0.00 | 0.47 | 0.00 | 92 | 1007.5 |
| 20260507100058 | 42 | 248 | 1.0 | 4.0 | 0.00 | 0.47 | 0.00 | 92 | 1007.5 |
| 20260507095056 | 42 | 248 | 1.0 | 4.0 | 0.00 | 0.47 | 0.00 | 92 | 1007.7 |
| 20260507094050 | 42 | 248 | 2.0 | 5.0 | 0.00 | 0.47 | 0.00 | 92 | 1007.9 |
| 20260507093046 | 42 | 248 | 2.0 | 4.0 | 0.00 | 0.47 | 0.00 | 92 | 1007.8 |
| 20260507092042 | 42 | 270 | 2.0 | 3.0 | 0.00 | 0.47 | 0.00 | 92 | 1008.0 |
| 20260507091038 | 42 | 248 | 1.0 | 3.0 | 0.00 | 0.47 | 0.00 | 92 | 1008.1 |
| 20260507090032 | 42 | 270 | 1.0 | 3.0 | 0.00 | 0.47 | 0.00 | 92 | 1008.1 |
| 20260507085028 | 42 | 270 | 1.0 | 3.0 | 0.00 | 0.47 | 0.00 | 93 | 1008.1 |
| 20260507084024 | 42 | 293 | 1.0 | 3.0 | 0.00 | 0.47 | 0.00 | 93 | 1008.3 |
| 20260507083020 | 42 | 293 | 1.0 | 3.0 | 0.00 | 0.47 | 0.00 | 93 | 1008.3 |
| 20260507082034 | 42 | 293 | 1.0 | 4.0 | 0.00 | 0.47 | 0.00 | 93 | 1008.3 |
| 20260507081016 | 42 | 0.0 | 2.0 | 0.00 | 0.47 | 0.00 | 92 | 1008.2 | |
| 20260507080012 | 42 | 0.0 | 1.0 | 0.00 | 0.47 | 0.00 | 92 | 1008.2 | |
| 20260507075008 | 43 | 293 | 1.0 | 3.0 | 0.00 | 0.47 | 0.00 | 92 | 1008.1 |
| 20260507074004 | 43 | 270 | 1.0 | 3.0 | 0.00 | 0.47 | 0.00 | 93 | 1008.2 |
| 20260507073021 | 43 | 270 | 1.0 | 3.0 | 0.00 | 0.47 | 0.00 | 93 | 1008.3 |
| 20260507072016 | 43 | 270 | 1.0 | 3.0 | 0.00 | 0.47 | 0.00 | 93 | 1008.3 |
| 20260507071115 | 43 | 0.0 | 2.0 | 0.00 | 0.47 | 0.00 | 93 | 1008.4 | |
| 20260507070131 | 42 | 270 | 1.0 | 3.0 | 0.00 | 0.47 | 0.00 | 93 | 1008.5 |
| 20260507065125 | 43 | 270 | 1.0 | 3.0 | 0.00 | 0.47 | 0.00 | 93 | 1008.5 |
| 20260507064059 | 42 | 270 | 1.0 | 4.0 | 0.00 | 0.47 | 0.00 | 93 | 1008.6 |
| 20260507063055 | 42 | 270 | 1.0 | 4.0 | 0.00 | 0.47 | 0.00 | 93 | 1008.5 |
| 20260507062048 | 42 | 293 | 1.0 | 5.0 | 0.00 | 0.47 | 0.00 | 92 | 1008.7 |
| 20260507061047 | 42 | 270 | 2.0 | 5.0 | 0.00 | 0.47 | 0.00 | 92 | 1008.9 |
| 20260507060043 | 42 | 270 | 2.0 | 5.0 | 0.00 | 0.47 | 0.00 | 92 | 1008.9 |
| 20260507055041 | 42 | 270 | 2.0 | 6.0 | 0.00 | 0.47 | 0.00 | 92 | 1008.9 |
| 20260507054055 | 42 | 270 | 2.0 | 5.0 | 0.00 | 0.47 | 0.00 | 91 | 1009.0 |
| 20260507053030 | 42 | 270 | 2.0 | 5.0 | 0.00 | 0.47 | 0.00 | 91 | 1009.1 |
| 20260507052027 | 42 | 270 | 2.0 | 5.0 | 0.00 | 0.47 | 0.00 | 91 | 1009.2 |
| 20260507051021 | 42 | 293 | 1.0 | 4.0 | 0.00 | 0.47 | 0.00 | 91 | 1009.3 |
| 20260507050017 | 42 | 270 | 1.0 | 3.0 | 0.00 | 0.47 | 0.00 | 91 | 1009.3 |
| 20260507045121 | 43 | 270 | 1.0 | 3.0 | 0.00 | 0.47 | 0.00 | 91 | 1009.3 |
| 20260507044116 | 43 | 293 | 2.0 | 5.0 | 0.00 | 0.47 | 0.00 | 90 | 1009.3 |
| 20260507043112 | 43 | 293 | 2.0 | 6.0 | 0.00 | 0.47 | 0.00 | 90 | 1009.2 |
| 20260507042108 | 43 | 293 | 2.0 | 7.0 | 0.00 | 0.47 | 0.00 | 90 | 1009.3 |
| 20260507041104 | 43 | 293 | 3.0 | 7.0 | 0.00 | 0.47 | 0.00 | 90 | 1009.2 |
| 20260507035114 | 43 | 293 | 3.0 | 7.0 | 0.00 | 0.47 | 0.47 | 90 | 1009.5 |
| 20260507034050 | 43 | 293 | 4.0 | 9.0 | 0.00 | 0.47 | 0.47 | 91 | 1009.6 |
| 20260507033041 | 43 | 270 | 4.0 | 9.0 | 0.00 | 0.47 | 0.47 | 91 | 1009.6 |
| 20260507032038 | 44 | 270 | 3.0 | 7.0 | 0.00 | 0.47 | 0.47 | 91 | 1009.8 |
| 20260507031032 | 44 | 293 | 4.0 | 9.0 | 0.00 | 0.47 | 0.47 | 91 | 1009.7 |
| 20260507030046 | 44 | 293 | 4.0 | 8.0 | 0.00 | 0.47 | 0.47 | 91 | 1009.9 |
| 20260507025015 | 44 | 293 | 3.0 | 6.0 | 0.00 | 0.47 | 0.47 | 91 | 1009.8 |
| 20260507024032 | 44 | 270 | 3.0 | 7.0 | 0.00 | 0.47 | 0.47 | 91 | 1009.9 |
| 20260507023037 | 44 | 270 | 3.0 | 7.0 | 0.00 | 0.47 | 0.47 | 91 | 1010.0 |
| 20260507022119 | 44 | 270 | 3.0 | 6.0 | 0.00 | 0.47 | 0.47 | 92 | 1010.0 |
| 20260507021116 | 44 | 270 | 2.0 | 5.0 | 0.00 | 0.47 | 0.47 | 92 | 1009.9 |
| 20260507020110 | 44 | 270 | 2.0 | 5.0 | 0.00 | 0.47 | 0.47 | 92 | 1009.9 |
| 20260507015126 | 44 | 248 | 1.0 | 4.0 | 0.00 | 0.47 | 0.47 | 92 | 1009.8 |